Huvudsida
METAR-TAF:

METAR-TAF

Flygplatser :

Chulitna, Alaska, USA

latitud: 62-53N, longitud: 149-50W, höjd: 381 m

Aktuellt väderrapport

Denna rapport gjordes för 15 minuter sedan, klockan 21:50 UTC
Vind 8 kt från väst
Temperatur -19°C
Fuktighet 49%
Tryck 996 hPa
Sikt: 48.3 km
Få moln på en höjd av 15000 ft

METAR: PAEC 192150Z 27008KT 30SM FEW150 M19/M27 A2941 RMK NOSPECI

Tid: 13:05 (22:05 UTC)


TAF: saknas

Aktuella väderrapporter och prognoser från 4000 flygplatser (METAR- och TAF-rapporter).

De tillgängliga stationerna syns som gula och röda prickar på kartan.

För musen över prickarna för att se namnen på stationerna.

Klicka sedan för att få väderrapporter och prognoser.

För att ändra kartan: Klicka på de gröna knapparna med ett svart kors på för att zooma in; den gröna knappen med ett streck på för att zooma ut; eller på de gröna pilarna för angränsande kartor.


METAR-TAF: